createdAt,value
2018-08-22T11:26:47.618Z,34.70
2018-08-22T11:29:26.963Z,35.20
2018-08-22T11:32:06.382Z,34.70
2018-08-22T11:34:44.318Z,34.20
2018-08-22T11:37:13.548Z,34.10
2018-08-22T11:39:43.203Z,33.90
2018-08-22T11:42:11.316Z,33.40
2018-08-22T11:44:39.449Z,32.80
2018-08-22T11:47:07.559Z,31.90
2018-08-22T11:49:35.699Z,31.20
2018-08-22T11:52:03.827Z,30.90
2018-08-22T11:54:32.831Z,30.50
2018-08-22T11:57:01.513Z,30.10
2018-08-22T11:59:29.771Z,29.70
2018-08-22T12:01:57.988Z,29.40
2018-08-22T12:04:26.015Z,29.00
2018-08-22T12:06:54.143Z,28.60
2018-08-22T12:09:22.292Z,28.40
2018-08-22T12:11:50.437Z,28.10
2018-08-22T12:14:18.579Z,27.90
2018-08-22T12:16:46.718Z,27.90
2018-08-22T12:19:14.829Z,28.00
2018-08-22T12:21:43.019Z,28.10
2018-08-22T12:24:11.156Z,28.40
2018-08-22T12:26:39.541Z,28.80
2018-08-22T12:29:07.649Z,29.10
2018-08-22T12:31:36.342Z,29.30
2018-08-22T12:34:04.498Z,29.50
2018-08-22T12:36:32.618Z,29.90
2018-08-22T12:39:00.753Z,30.00
2018-08-22T12:41:28.866Z,30.20
2018-08-22T12:43:57.032Z,30.60
2018-08-22T12:46:25.135Z,31.00
2018-08-22T12:48:53.425Z,31.20
2018-08-22T12:51:22.252Z,31.30
2018-08-22T12:53:50.421Z,32.10
2018-08-22T12:56:18.540Z,31.30
2018-08-22T12:58:46.654Z,31.00
2018-08-22T13:01:14.782Z,30.90
2018-08-22T13:03:42.896Z,31.10
2018-08-22T13:06:11.021Z,31.20
2018-08-22T13:08:39.149Z,31.40
2018-08-22T13:11:07.308Z,31.10
2018-08-22T13:13:35.404Z,31.10
2018-08-22T13:16:03.516Z,31.40
2018-08-22T13:18:31.639Z,31.90
2018-08-22T13:20:59.765Z,31.30
2018-08-22T13:23:27.902Z,30.90
2018-08-22T13:25:56.033Z,31.40
2018-08-22T13:28:24.182Z,30.90
2018-08-22T13:30:52.313Z,30.60
2018-08-22T13:33:20.552Z,30.40
2018-08-22T13:35:48.669Z,30.20
2018-08-22T13:38:16.798Z,30.10
2018-08-22T13:40:44.925Z,30.30
2018-08-22T13:43:13.096Z,30.40
2018-08-22T13:45:41.218Z,30.50
2018-08-22T13:48:09.337Z,30.70
2018-08-22T13:50:37.448Z,30.90
2018-08-22T13:53:05.601Z,31.10
2018-08-22T13:55:33.712Z,30.90
2018-08-22T13:58:01.889Z,30.70
2018-08-22T14:00:30.038Z,30.80
2018-08-22T14:02:58.739Z,30.90
2018-08-22T14:05:26.832Z,31.50
2018-08-22T14:07:54.992Z,30.90
2018-08-22T14:10:23.105Z,31.00
2018-08-22T14:12:51.266Z,30.80
2018-08-22T14:15:19.389Z,30.60
2018-08-22T14:17:47.505Z,30.70
2018-08-22T14:20:15.641Z,30.70
2018-08-22T14:22:43.770Z,31.40
2018-08-22T14:25:11.913Z,30.80
2018-08-22T14:27:40.033Z,30.80
2018-08-22T14:30:08.247Z,30.80
2018-08-22T14:32:36.380Z,31.00
2018-08-22T14:35:04.510Z,31.20
2018-08-22T14:37:32.620Z,31.40
2018-08-22T14:40:00.733Z,31.40
2018-08-22T14:42:28.853Z,31.50
2018-08-22T14:44:57.088Z,31.70
2018-08-22T14:47:25.132Z,31.60
2018-08-22T14:54:49.056Z,30.90
2018-08-22T14:57:17.185Z,31.00
2018-08-22T14:59:45.295Z,31.60
2018-08-22T15:02:13.453Z,31.80
2018-08-22T15:04:41.541Z,32.00
2018-08-22T15:07:09.662Z,32.10
2018-08-22T15:09:38.029Z,32.20
2018-08-22T15:12:06.147Z,32.10
2018-08-22T15:14:34.266Z,32.00
2018-08-22T15:17:02.406Z,32.20
2018-08-22T15:19:30.516Z,32.20
2018-08-22T15:21:58.632Z,32.40
2018-08-22T15:24:26.766Z,32.40
2018-08-22T15:26:54.873Z,32.40
2018-08-22T15:29:23.885Z,32.50
2018-08-22T15:31:52.025Z,32.60
2018-08-22T15:34:20.135Z,32.50
2018-08-22T15:36:48.326Z,32.40
2018-08-22T15:39:16.448Z,32.30
2018-08-22T15:41:44.595Z,32.50
2018-08-22T15:44:12.701Z,32.60
2018-08-22T15:46:41.476Z,32.50
2018-08-22T15:49:09.624Z,32.50
2018-08-22T15:51:37.777Z,32.60
2018-08-22T15:54:09.220Z,32.70
2018-08-22T15:56:38.664Z,32.70
2018-08-22T15:59:07.121Z,32.80
2018-08-22T16:01:35.257Z,33.00
2018-08-22T16:04:03.362Z,33.10
2018-08-22T16:06:31.525Z,33.20
2018-08-22T16:08:59.675Z,33.10
2018-08-22T16:11:27.780Z,33.20
2018-08-22T16:13:55.908Z,33.10
2018-08-22T16:16:24.031Z,33.00
2018-08-22T16:18:52.148Z,33.10
2018-08-22T16:21:20.268Z,33.20
2018-08-22T16:23:48.430Z,33.30
2018-08-22T16:26:16.640Z,33.30
2018-08-22T16:28:51.176Z,33.40
2018-08-22T16:31:19.490Z,33.40
2018-08-22T16:33:47.610Z,33.50
2018-08-22T16:36:20.871Z,33.50
2018-08-22T16:38:49.004Z,33.70
2018-08-22T16:41:17.576Z,33.80
2018-08-22T16:43:48.239Z,34.00
2018-08-22T16:46:16.639Z,34.20
2018-08-22T16:48:48.207Z,34.20
2018-08-22T16:51:17.429Z,34.30
2018-08-22T16:53:59.709Z,34.40
2018-08-22T16:56:28.540Z,34.30
2018-08-22T16:59:01.914Z,33.90
2018-08-22T17:01:30.737Z,34.50
2018-08-22T17:03:58.849Z,34.70
2018-08-22T17:06:28.088Z,34.90
2018-08-22T17:08:56.760Z,35.10
2018-08-22T17:11:24.891Z,35.30
2018-08-22T17:13:53.477Z,35.30
2018-08-22T17:16:22.416Z,36.00
2018-08-22T17:18:50.612Z,35.40
2018-08-22T17:21:18.765Z,35.60
2018-08-22T17:23:47.237Z,35.50
2018-08-22T17:26:18.372Z,35.40
2018-08-22T17:28:50.472Z,35.50
2018-08-22T17:31:19.370Z,35.60
2018-08-22T17:33:49.120Z,35.60
2018-08-22T17:36:17.300Z,35.70
2018-08-22T17:38:48.698Z,35.80
2018-08-22T17:41:17.536Z,35.90
2018-08-22T17:44:19.076Z,35.90
2018-08-22T17:46:49.944Z,36.10
2018-08-22T17:49:18.064Z,36.30
2018-08-22T17:51:57.254Z,36.70
2018-08-22T17:54:25.753Z,37.00
2018-08-22T17:57:05.449Z,37.00
2018-08-22T17:59:33.581Z,37.30
2018-08-22T18:02:01.704Z,37.40
2018-08-22T18:04:44.861Z,37.60
2018-08-22T18:07:13.161Z,37.70
2018-08-22T18:09:41.360Z,37.80
2018-08-22T18:12:09.496Z,38.00
2018-08-22T18:14:37.733Z,38.10
2018-08-22T18:17:06.225Z,38.20
2018-08-22T18:19:35.691Z,38.40
2018-08-22T18:22:03.869Z,38.10
2018-08-22T18:24:32.064Z,38.70
2018-08-22T18:27:01.958Z,39.20
2018-08-22T18:29:30.129Z,39.70
2018-08-22T18:31:58.233Z,40.10
2018-08-22T18:34:26.415Z,40.40
2018-08-22T18:36:54.513Z,40.70
2018-08-22T18:39:22.634Z,41.00
2018-08-22T18:41:50.796Z,41.40
2018-08-22T18:44:18.925Z,41.80
2018-08-22T18:46:47.104Z,42.40
2018-08-22T18:49:15.336Z,42.90
2018-08-22T18:51:43.603Z,43.30
2018-08-22T18:54:11.730Z,43.70
2018-08-22T18:56:39.881Z,43.90
2018-08-22T18:59:19.453Z,44.10
2018-08-22T19:01:47.572Z,44.40
2018-08-22T19:04:15.744Z,44.50
2018-08-22T19:06:43.928Z,44.70
2018-08-22T19:09:12.186Z,44.90
2018-08-22T19:11:40.399Z,44.70
2018-08-22T19:14:08.821Z,45.40
2018-08-22T19:16:38.332Z,45.70
2018-08-22T19:19:06.699Z,45.90
2018-08-22T19:21:34.905Z,46.20
2018-08-22T19:24:03.998Z,46.40
2018-08-22T19:26:33.789Z,46.70
2018-08-22T19:29:03.536Z,46.80
2018-08-22T19:31:31.726Z,47.00
2018-08-22T19:34:01.016Z,47.00
2018-08-22T19:36:30.609Z,47.20
2018-08-22T19:38:58.861Z,47.20
2018-08-22T19:41:31.245Z,46.60
2018-08-22T19:43:59.548Z,47.40
2018-08-22T19:46:27.715Z,47.40
2018-08-22T19:48:55.943Z,47.50
2018-08-22T19:51:24.085Z,47.50
2018-08-22T19:54:01.354Z,46.80
2018-08-22T19:56:30.799Z,47.70
2018-08-22T19:58:59.096Z,47.80
2018-08-22T20:01:30.335Z,48.00
2018-08-22T20:03:58.720Z,48.20
2018-08-22T20:06:27.185Z,48.40
2018-08-22T20:08:57.149Z,47.90
2018-08-22T20:11:25.708Z,48.60
2018-08-22T20:13:58.361Z,48.80
2018-08-22T20:18:55.573Z,48.70
2018-08-22T20:21:29.794Z,49.30
2018-08-22T20:23:58.083Z,48.80
2018-08-22T20:26:26.834Z,48.90
2018-08-22T20:28:57.421Z,49.60
2018-08-22T20:31:25.553Z,49.70
2018-08-22T20:33:59.552Z,49.30
2018-08-22T20:38:57.683Z,49.50
2018-08-22T20:41:27.317Z,50.20
2018-08-22T20:43:55.473Z,50.10
2018-08-22T20:46:23.637Z,49.40
2018-08-22T20:48:52.286Z,50.10
2018-08-22T20:51:20.472Z,50.20
2018-08-22T20:53:52.869Z,50.00
2018-08-22T20:56:22.052Z,50.00
2018-08-22T20:58:50.257Z,50.00
2018-08-22T21:01:18.643Z,49.90
2018-08-22T21:03:47.596Z,49.70
2018-08-22T21:06:15.730Z,48.80
2018-08-22T21:08:43.900Z,49.50
2018-08-22T21:11:12.015Z,48.80
2018-08-22T21:13:40.278Z,49.40
2018-08-22T21:16:08.356Z,48.80
2018-08-22T21:18:36.565Z,49.00
2018-08-22T21:21:04.700Z,49.70
2018-08-22T21:23:32.842Z,49.10
2018-08-22T21:26:01.238Z,49.40
2018-08-22T21:28:33.096Z,49.50
2018-08-22T21:31:01.533Z,49.70
2018-08-22T21:33:30.547Z,49.80
2018-08-22T21:35:58.772Z,49.90
2018-08-22T21:38:26.913Z,49.90
2018-08-22T21:40:55.049Z,50.00
2018-08-22T21:43:23.601Z,50.20
2018-08-22T21:45:52.152Z,50.20
2018-08-22T21:48:22.908Z,50.40
2018-08-22T21:50:51.029Z,50.40
2018-08-22T21:53:19.252Z,51.20
2018-08-22T21:55:48.830Z,50.70
2018-08-22T21:58:16.961Z,51.50
2018-08-22T22:00:45.093Z,50.90
2018-08-22T22:03:14.816Z,51.80
2018-08-22T22:05:49.747Z,51.10
2018-08-22T22:08:17.944Z,51.30
2018-08-22T22:10:47.778Z,52.00
2018-08-22T22:13:17.352Z,51.30
2018-08-22T22:15:46.658Z,52.00
2018-08-22T22:18:14.819Z,51.80
2018-08-22T22:20:45.597Z,51.10
2018-08-22T22:23:13.939Z,51.30
2018-08-22T22:25:42.444Z,51.50
2018-08-22T22:28:10.651Z,51.80
2018-08-22T22:30:38.807Z,52.00
2018-08-22T22:33:06.920Z,52.30
2018-08-22T22:35:37.781Z,52.60
2018-08-22T22:38:08.581Z,52.80
2018-08-22T22:40:36.997Z,52.80
2018-08-22T22:43:08.319Z,53.60
2018-08-22T22:45:37.235Z,53.70
2018-08-22T22:48:05.499Z,53.80
2018-08-22T22:50:33.671Z,53.90
2018-08-22T22:53:01.962Z,53.80
2018-08-22T22:55:30.400Z,53.90
2018-08-22T22:57:58.546Z,54.00
2018-08-22T23:00:29.088Z,54.30
2018-08-22T23:03:02.863Z,54.60
2018-08-22T23:05:31.520Z,55.00
2018-08-22T23:08:01.168Z,55.20
2018-08-22T23:10:29.584Z,55.30
2018-08-22T23:12:57.722Z,55.40
2018-08-22T23:15:29.232Z,55.60
2018-08-22T23:18:02.592Z,55.90
2018-08-22T23:20:32.578Z,56.10
2018-08-22T23:23:00.738Z,56.30
2018-08-22T23:25:29.292Z,56.60
2018-08-22T23:27:57.745Z,56.80
2018-08-22T23:30:35.079Z,56.90
2018-08-22T23:33:04.504Z,57.00
2018-08-22T23:35:33.768Z,57.10
2018-08-22T23:38:06.048Z,57.10
2018-08-22T23:40:35.038Z,56.60
2018-08-22T23:43:03.192Z,57.10
2018-08-22T23:45:31.437Z,57.40
2018-08-22T23:47:59.579Z,58.00
2018-08-22T23:50:42.262Z,58.40
2018-08-22T23:53:10.713Z,58.30
2018-08-22T23:55:38.868Z,58.50
2018-08-22T23:58:09.045Z,59.30
